createdAt,value
2023-08-18T04:12:53.764Z,100.00
2023-08-18T04:15:58.548Z,100.00
2023-08-18T04:19:04.954Z,100.00
2023-08-18T04:22:08.802Z,100.00
2023-08-18T04:25:11.426Z,100.00
2023-08-18T04:28:14.893Z,100.00
2023-08-18T04:31:17.936Z,100.00
2023-08-18T04:34:21.381Z,100.00
2023-08-18T04:37:24.204Z,100.00
2023-08-18T04:40:27.448Z,100.00
2023-08-18T04:43:32.274Z,100.00
2023-08-18T04:46:35.509Z,100.00
2023-08-18T04:49:39.121Z,100.00
2023-08-18T04:52:42.653Z,100.00
2023-08-18T04:55:45.991Z,100.00
2023-08-18T04:58:49.980Z,100.00
2023-08-18T05:01:53.613Z,100.00
2023-08-18T05:04:56.503Z,100.00
2023-08-18T05:07:59.200Z,100.00
2023-08-18T05:11:12.246Z,100.00
2023-08-18T05:14:14.802Z,100.00
2023-08-18T05:17:17.699Z,100.00
2023-08-18T05:20:20.325Z,100.00
2023-08-18T05:23:23.572Z,100.00
2023-08-18T05:26:26.194Z,100.00
2023-08-18T05:29:29.077Z,100.00
2023-08-18T05:32:32.157Z,100.00
2023-08-18T05:35:35.272Z,100.00
2023-08-18T05:38:37.842Z,100.00
2023-08-18T05:41:40.762Z,100.00
2023-08-18T05:44:44.039Z,100.00
2023-08-18T05:47:46.923Z,100.00
2023-08-18T05:50:49.454Z,100.00
2023-08-18T05:53:52.374Z,100.00
2023-08-18T05:56:54.843Z,100.00
2023-08-18T05:59:57.749Z,100.00
2023-08-18T06:03:00.907Z,100.00
2023-08-18T06:06:06.815Z,100.00
2023-08-18T06:09:09.839Z,100.00
2023-08-18T06:12:12.647Z,100.00
2023-08-18T06:15:16.694Z,100.00
2023-08-18T06:18:20.081Z,100.00
2023-08-18T06:21:22.622Z,100.00
2023-08-18T06:24:25.383Z,100.00
2023-08-18T06:27:27.919Z,100.00
2023-08-18T06:30:30.773Z,100.00
2023-08-18T06:33:35.136Z,100.00
2023-08-18T06:36:38.074Z,100.00
2023-08-18T06:39:40.696Z,100.00
2023-08-18T06:42:43.561Z,100.00
2023-08-18T06:45:46.397Z,100.00
2023-08-18T06:48:49.323Z,100.00
2023-08-18T06:51:51.948Z,100.00
2023-08-18T06:54:55.441Z,100.00
2023-08-18T06:57:58.610Z,100.00
2023-08-18T07:01:01.513Z,100.00
2023-08-18T07:04:05.754Z,100.00
2023-08-18T07:07:08.568Z,100.00
2023-08-18T07:10:11.123Z,100.00
2023-08-18T07:13:13.980Z,100.00
2023-08-18T07:16:16.621Z,100.00
2023-08-18T07:19:19.480Z,100.00
2023-08-18T07:22:22.040Z,100.00
2023-08-18T07:25:25.836Z,100.00
2023-08-18T07:28:28.459Z,100.00
2023-08-18T07:31:32.026Z,100.00
2023-08-18T07:34:34.621Z,100.00
2023-08-18T07:37:55.030Z,100.00
2023-08-18T07:40:58.727Z,100.00
2023-08-18T07:44:01.654Z,100.00
2023-08-18T07:47:04.500Z,100.00
2023-08-18T07:50:09.665Z,100.00
2023-08-18T07:53:12.606Z,100.00
2023-08-18T07:56:15.483Z,100.00
2023-08-18T07:59:17.978Z,100.00
2023-08-18T08:02:29.394Z,100.00
2023-08-18T08:05:34.235Z,100.00
2023-08-18T08:08:37.017Z,100.00
2023-08-18T08:11:39.816Z,100.00
2023-08-18T08:14:42.399Z,100.00
2023-08-18T08:17:45.293Z,100.00
2023-08-18T08:20:47.881Z,100.00
2023-08-18T08:23:50.979Z,100.00
2023-08-18T08:26:56.927Z,100.00
2023-08-18T08:30:03.009Z,100.00
2023-08-18T08:33:06.485Z,100.00
2023-08-18T08:36:09.548Z,100.00
2023-08-18T08:39:12.139Z,100.00
2023-08-18T08:42:15.017Z,100.00
2023-08-18T08:45:17.725Z,100.00
2023-08-18T08:48:22.822Z,100.00
2023-08-18T08:51:29.272Z,100.00
2023-08-18T08:54:35.133Z,100.00
2023-08-18T08:57:38.101Z,93.38
2023-08-18T09:00:41.200Z,85.65
2023-08-18T09:03:46.345Z,77.98
2023-08-18T09:06:49.550Z,73.46
2023-08-18T09:09:52.148Z,71.00
2023-08-18T09:12:55.708Z,72.13
2023-08-18T09:15:58.311Z,72.18
2023-08-18T09:19:02.382Z,74.32
2023-08-18T09:22:05.903Z,72.70
2023-08-18T09:25:09.655Z,71.59
2023-08-18T09:28:16.279Z,63.22
2023-08-18T09:31:22.244Z,64.47
2023-08-18T09:34:25.621Z,64.91
2023-08-18T09:37:32.610Z,64.56
2023-08-18T09:40:35.071Z,67.40
2023-08-18T09:43:38.564Z,70.44
2023-08-18T09:46:43.404Z,72.88
2023-08-18T09:49:49.067Z,71.42
2023-08-18T09:52:55.170Z,73.76
2023-08-18T09:56:15.010Z,75.49
2023-08-18T09:59:18.910Z,72.48
2023-08-18T10:02:25.611Z,73.39
2023-08-18T10:05:29.062Z,77.12
2023-08-18T10:08:32.696Z,75.52
2023-08-18T10:11:51.001Z,75.96
2023-08-18T10:14:55.302Z,77.58
2023-08-18T10:17:58.397Z,75.20
2023-08-18T10:21:01.317Z,77.34
2023-08-18T10:24:04.798Z,75.50
2023-08-18T10:27:11.666Z,74.09
2023-08-18T10:30:14.446Z,75.03
2023-08-18T10:33:29.673Z,75.17
2023-08-18T10:36:32.516Z,74.08
2023-08-18T10:39:41.576Z,67.62
2023-08-18T10:42:44.928Z,63.47
2023-08-18T10:45:52.117Z,62.31
2023-08-18T10:48:54.976Z,60.38
2023-08-18T10:51:58.284Z,56.66
2023-08-18T10:55:01.138Z,54.73
2023-08-18T10:58:04.846Z,59.19
2023-08-18T11:01:10.339Z,62.11
2023-08-18T11:04:15.183Z,61.25
2023-08-18T11:07:20.159Z,61.78
2023-08-18T11:10:24.542Z,60.30
2023-08-18T11:13:29.963Z,56.71
2023-08-18T11:16:35.756Z,58.94
2023-08-18T11:19:38.610Z,58.58
2023-08-18T11:22:46.719Z,54.08
2023-08-18T11:25:49.729Z,57.66
2023-08-18T11:28:52.454Z,60.02
2023-08-18T11:31:55.334Z,60.18
2023-08-18T11:34:58.404Z,58.44
2023-08-18T11:38:03.035Z,58.15
2023-08-18T11:41:05.779Z,59.15
2023-08-18T11:44:09.764Z,58.93
2023-08-18T11:47:13.577Z,61.49
2023-08-18T11:50:22.833Z,62.15
2023-08-18T11:53:26.961Z,63.72
2023-08-18T11:56:32.783Z,61.58
2023-08-18T11:59:35.415Z,63.12
2023-08-18T12:02:48.456Z,62.47
2023-08-18T12:05:52.647Z,61.04
2023-08-18T12:08:55.257Z,62.48
2023-08-18T12:11:58.150Z,59.79
2023-08-18T12:15:00.695Z,63.78
2023-08-18T12:18:03.649Z,60.84
2023-08-18T12:21:06.255Z,61.36
2023-08-18T12:24:09.254Z,59.39
2023-08-18T12:27:11.840Z,61.51
2023-08-18T12:30:16.053Z,60.31
2023-08-18T12:33:20.544Z,60.36
2023-08-18T12:36:23.582Z,59.85
2023-08-18T12:39:26.186Z,59.24
2023-08-18T12:42:31.999Z,59.48
2023-08-18T12:45:34.841Z,59.88
2023-08-18T12:48:37.662Z,58.43
2023-08-18T12:51:40.287Z,59.10
2023-08-18T12:54:43.223Z,59.66
2023-08-18T12:57:47.154Z,59.47
2023-08-18T13:00:50.094Z,59.38
2023-08-18T13:03:52.775Z,59.52
2023-08-18T13:06:55.664Z,61.57
2023-08-18T13:09:58.271Z,61.17
2023-08-18T13:13:01.448Z,62.64
2023-08-18T13:16:04.198Z,63.15
2023-08-18T13:19:07.054Z,64.59
2023-08-18T13:22:09.722Z,65.54
2023-08-18T13:25:14.184Z,64.34
2023-08-18T13:28:18.043Z,63.35
2023-08-18T13:31:20.924Z,66.10
2023-08-18T13:34:23.510Z,66.21
2023-08-18T13:37:29.442Z,65.75
2023-08-18T13:40:32.099Z,67.94
2023-08-18T13:43:34.836Z,68.23
2023-08-18T13:46:37.352Z,67.82
2023-08-18T13:49:40.405Z,68.31
2023-08-18T13:52:42.896Z,66.36
2023-08-18T13:55:45.774Z,66.89
2023-08-18T13:58:48.374Z,65.02
2023-08-18T14:01:51.544Z,65.26
2023-08-18T14:04:54.484Z,64.97
2023-08-18T14:07:57.105Z,67.24
2023-08-18T14:11:00.016Z,68.03
2023-08-18T14:14:02.572Z,68.82
2023-08-18T14:17:08.661Z,66.12
2023-08-18T14:20:15.473Z,64.39
2023-08-18T14:23:18.393Z,65.02
2023-08-18T14:26:21.768Z,64.76
2023-08-18T14:29:25.254Z,63.28
2023-08-18T14:32:27.912Z,64.55
2023-08-18T14:35:30.825Z,65.20
2023-08-18T14:38:33.350Z,66.86
2023-08-18T14:41:36.257Z,68.67
2023-08-18T14:44:38.827Z,70.80
2023-08-18T14:47:41.770Z,71.66
2023-08-18T14:50:46.658Z,71.22
2023-08-18T14:53:49.530Z,70.21
2023-08-18T14:56:52.037Z,70.56
2023-08-18T14:59:54.871Z,70.95
2023-08-18T15:02:59.118Z,76.30
2023-08-18T15:06:02.084Z,75.22
2023-08-18T15:09:04.930Z,74.15
2023-08-18T15:12:08.563Z,83.32
2023-08-18T15:15:11.709Z,74.86
2023-08-18T15:18:14.649Z,70.82
2023-08-18T15:21:17.235Z,73.09
2023-08-18T15:24:21.575Z,71.35
2023-08-18T15:27:24.110Z,73.91
2023-08-18T15:30:27.269Z,73.73
